Time;durP1;ratioP1;P1;durP2;ratioP2;P2;SDS_P1;SDS_P2;PMS_P1;PMS_P2;Temp;Humidity;BMP_temperature;BMP_pressure;BME280_temperature;BME280_humidity;BME280_pressure;Samples;Min_cycle;Max_cycle;Signal;HPM_P1;HPM_P2
2021/09/24 00:00:57;;;;;;;11.12;7.20;;;;;;;8.68;75.33;98878.04;1772618;80;21669;-68
2021/09/24 00:03:26;;;;;;;8.68;6.97;;;;;;;8.65;75.58;98869.47;1772260;80;21676;-67
2021/09/24 00:05:53;;;;;;;9.40;7.62;;;;;;;8.66;75.90;98875.92;1735482;80;21029;-68
2021/09/24 00:08:21;;;;;;;8.33;7.25;;;;;;;8.78;75.86;98864.03;1742059;82;21775;-68
2021/09/24 00:10:48;;;;;;;11.95;7.05;;;;;;;8.78;75.69;98861.41;1741769;82;21428;-68
2021/09/24 00:13:16;;;;;;;10.25;7.72;;;;;;;8.75;75.84;98849.75;1748400;80;21526;-67
2021/09/24 00:15:44;;;;;;;;;;;;;;;8.74;75.80;98851.53;1752190;80;21097;-68
2021/09/24 00:18:12;;;;;;;8.30;5.72;;;;;;;8.70;76.18;98840.81;1742572;80;20455;-67
2021/09/24 00:20:40;;;;;;;7.33;6.47;;;;;;;8.80;76.21;98841.65;1725340;82;20939;-67
2021/09/24 00:23:09;;;;;;;7.97;6.90;;;;;;;8.80;76.21;98839.91;1762338;80;21427;-69
2021/09/24 00:25:36;;;;;;;7.15;6.08;;;;;;;8.77;76.22;98828.24;1735755;82;21432;-68
2021/09/24 00:28:05;;;;;;;8.30;5.67;;;;;;;8.76;76.21;98829.19;1735558;80;21427;-67
2021/09/24 00:30:33;;;;;;;10.60;6.55;;;;;;;8.82;76.63;98830.19;1737716;80;21518;-68
2021/09/24 00:33:00;;;;;;;9.08;6.58;;;;;;;8.89;76.71;98814.55;1734923;80;22050;-68
2021/09/24 00:35:27;;;;;;;7.33;6.62;;;;;;;8.88;76.68;98805.45;1739845;80;21407;-66
2021/09/24 00:37:54;;;;;;;8.95;6.75;;;;;;;8.84;76.72;98798.19;1735904;82;21514;-66
2021/09/24 00:40:20;;;;;;;8.63;5.92;;;;;;;8.81;77.02;98796.18;1735727;82;21408;-67
2021/09/24 00:42:47;;;;;;;7.62;6.37;;;;;;;8.83;77.23;98785.16;1735879;82;21419;-67
2021/09/24 00:45:13;;;;;;;7.37;6.42;;;;;;;8.90;77.23;98788.70;1738127;80;22112;-67
2021/09/24 00:47:40;;;;;;;7.53;6.25;;;;;;;8.93;77.11;98778.08;1736368;80;21472;-67
2021/09/24 00:50:08;;;;;;;10.88;6.55;;;;;;;8.91;77.01;98794.34;1736957;80;21427;-67
2021/09/24 00:52:36;;;;;;;11.75;6.25;;;;;;;8.87;77.12;98788.01;1735482;82;20942;-66
2021/09/24 00:55:04;;;;;;;5.90;5.35;;;;;;;8.91;77.49;98785.61;1748387;80;21541;-67
2021/09/24 00:57:31;;;;;;;6.55;5.85;;;;;;;9.02;77.42;98778.06;1772934;80;21786;-67
2021/09/24 00:59:57;;;;;;;7.00;6.30;;;;;;;9.04;77.29;98775.37;1764755;80;21417;-68
2021/09/24 01:02:24;;;;;;;13.30;7.03;;;;;;;9.03;77.39;98763.20;1735936;80;21558;-67
2021/09/24 01:04:51;;;;;;;9.68;6.25;;;;;;;8.98;77.51;98757.33;1741821;80;21581;-69
2021/09/24 01:07:18;;;;;;;8.63;6.15;;;;;;;9.04;77.63;98751.77;1749631;80;21379;-62
2021/09/24 01:09:44;;;;;;;7.85;6.45;;;;;;;9.10;77.60;98753.63;1741916;82;21791;-69
2021/09/24 01:12:13;;;;;;;10.10;7.45;;;;;;;9.09;77.58;98747.15;1747123;80;21432;-70
2021/09/24 01:14:39;;;;;;;10.15;6.72;;;;;;;9.08;77.43;98746.31;1764459;80;21436;-70
2021/09/24 01:17:06;;;;;;;7.62;6.80;;;;;;;9.04;77.47;98744.77;1761816;80;21507;-71
2021/09/24 01:19:35;;;;;;;9.30;6.25;;;;;;;9.07;77.82;98742.45;1764151;80;21535;-69
2021/09/24 01:22:02;;;;;;;8.40;6.40;;;;;;;9.19;77.58;98750.98;1764827;80;22145;-70
2021/09/24 01:24:30;;;;;;;10.68;7.22;;;;;;;9.14;77.49;98735.50;1763570;80;21440;-70
2021/09/24 01:26:57;;;;;;;8.70;7.28;;;;;;;9.12;77.57;98722.93;1753209;80;21448;-70
2021/09/24 01:29:27;;;;;;;8.00;6.55;;;;;;;9.14;77.80;98711.89;1740680;80;21467;-70
2021/09/24 01:31:53;;;;;;;10.25;7.22;;;;;;;9.21;77.98;98707.19;1764717;80;21495;-70
2021/09/24 01:34:20;;;;;;;9.20;7.25;;;;;;;9.26;77.66;98707.78;1764361;80;21767;-68
2021/09/24 01:36:47;;;;;;;12.90;7.42;;;;;;;9.22;77.87;98698.37;1762502;80;21483;-68
2021/09/24 01:39:14;;;;;;;9.70;7.15;;;;;;;9.20;77.97;98694.99;1763208;80;21448;-68
2021/09/24 01:41:46;;;;;;;11.97;7.17;;;;;;;9.25;78.12;98687.73;1764348;80;21554;-68
2021/09/24 01:44:14;;;;;;;12.47;7.58;;;;;;;9.33;78.03;98686.86;1756392;80;21397;-69
2021/09/24 01:46:45;;;;;;;8.38;6.90;;;;;;;9.36;77.57;98683.22;1725527;82;21808;-69
2021/09/24 01:49:13;;;;;;;9.53;7.45;;;;;;;9.28;77.81;98672.30;1729679;80;21408;-68
2021/09/24 01:51:42;;;;;;;12.47;7.87;;;;;;;9.23;78.38;98669.05;1727822;81;21641;-69
2021/09/24 01:54:11;;;;;;;9.10;7.35;;;;;;;9.29;78.72;98670.06;1697540;82;21078;-67
2021/09/24 01:56:38;;;;;;;;;;;;;;;9.34;78.29;98664.09;1725760;82;21535;-67
2021/09/24 01:59:05;;;;;;;10.08;6.85;;;;;;;9.27;78.69;98664.89;1745068;80;22138;-67
2021/09/24 02:01:31;;;;;;;9.50;7.12;;;;;;;9.22;78.59;98657.73;1764396;80;21589;-67
2021/09/24 02:04:01;;;;;;;9.25;7.90;;;;;;;9.27;78.82;98652.25;1764051;80;21810;-67
2021/09/24 02:06:30;;;;;;;9.50;7.97;;;;;;;9.36;78.82;98655.67;1764459;80;21416;-68
2021/09/24 02:08:57;;;;;;;8.80;7.50;;;;;;;9.35;78.63;98642.19;1751352;80;21053;-67
2021/09/24 02:11:24;;;;;;;9.55;7.47;;;;;;;9.33;78.64;98641.42;1725906;80;21859;-68
2021/09/24 02:13:52;;;;;;;7.50;6.80;;;;;;;9.32;78.73;98637.97;1737005;80;21526;-68
2021/09/24 02:16:18;;;;;;;8.23;7.33;;;;;;;9.37;79.05;98637.70;1732112;82;21456;-69
2021/09/24 02:18:45;;;;;;;8.63;7.80;;;;;;;9.46;78.47;98622.78;1732024;81;21042;-69
2021/09/24 02:21:12;;;;;;;8.65;7.47;;;;;;;9.43;78.42;98620.78;1759031;80;21613;-68
2021/09/24 02:23:38;;;;;;;7.17;6.58;;;;;;;9.38;78.61;98615.80;1760576;81;21625;-67
2021/09/24 02:26:07;;;;;;;7.47;6.67;;;;;;;9.42;78.87;98611.20;1762027;80;21439;-66
2021/09/24 02:28:33;;;;;;;8.50;7.60;;;;;;;9.43;78.86;98606.35;1762580;80;21469;-66
2021/09/24 02:31:01;;;;;;;9.45;8.28;;;;;;;9.42;78.87;98600.27;1742568;81;21435;-65
2021/09/24 02:33:30;;;;;;;8.73;6.78;;;;;;;9.43;78.60;98595.86;1730765;81;21384;-67
2021/09/24 02:35:57;;;;;;;7.67;6.47;;;;;;;9.38;79.14;98594.81;1730854;82;21415;-66
2021/09/24 02:38:24;;;;;;;8.55;7.60;;;;;;;9.47;79.16;98588.20;1730899;81;21495;-67
2021/09/24 02:40:50;;;;;;;9.03;8.13;;;;;;;9.44;79.01;98581.83;1737755;81;21016;-66
2021/09/24 02:43:17;;;;;;;11.20;7.92;;;;;;;9.36;79.28;98573.03;1753992;80;21499;-68
2021/09/24 02:45:45;;;;;;;8.93;7.55;;;;;;;9.36;79.66;98574.34;1762609;80;21574;-68
2021/09/24 02:48:13;;;;;;;10.32;8.48;;;;;;;9.46;79.64;98569.47;1738695;80;21574;-69
2021/09/24 02:50:42;;;;;;;7.53;6.72;;;;;;;9.51;79.14;98561.72;1732387;81;21635;-69
2021/09/24 02:53:10;;;;;;;8.53;7.62;;;;;;;9.46;79.19;98557.66;1761795;80;21293;-69
2021/09/24 02:55:37;;;;;;;8.05;7.25;;;;;;;9.46;79.34;98559.80;1762484;80;21491;-69
2021/09/24 02:58:05;;;;;;;9.00;7.37;;;;;;;9.55;79.53;98557.14;1750687;81;21531;-71
2021/09/24 03:00:33;;;;;;;8.33;7.42;;;;;;;9.55;79.35;98550.11;1739736;80;27092;-68
2021/09/24 03:02:59;;;;;;;8.70;7.85;;;;;;;9.52;79.16;98541.09;1746597;80;21442;-69
2021/09/24 03:05:27;;;;;;;7.87;7.12;;;;;;;9.50;79.31;98538.19;1746924;81;21434;-70
2021/09/24 03:07:54;;;;;;;7.87;7.15;;;;;;;9.60;79.28;98549.84;1746688;80;21455;-68
2021/09/24 03:10:20;;;;;;;8.48;7.67;;;;;;;9.63;79.36;98540.97;1727826;81;21433;-69
2021/09/24 03:12:48;;;;;;;9.28;7.92;;;;;;;9.60;79.21;98539.81;1698470;83;21816;-71
2021/09/24 03:15:14;;;;;;;7.97;7.17;;;;;;;9.58;79.26;98545.14;1674623;85;21018;-69
2021/09/24 03:17:42;;;;;;;8.18;7.10;;;;;;;9.57;79.35;98527.73;1674219;85;21514;-69
2021/09/24 03:20:11;;;;;;;7.30;6.58;;;;;;;9.69;79.28;98525.70;1681703;83;21445;-69
2021/09/24 03:22:40;;;;;;;7.87;7.17;;;;;;;9.68;79.16;98514.84;1700897;83;21458;-68
2021/09/24 03:25:08;;;;;;;8.10;7.40;;;;;;;9.60;79.21;98507.85;1694564;84;22189;-68
2021/09/24 03:27:37;;;;;;;9.45;6.80;;;;;;;9.56;79.33;98508.96;1694306;84;20978;-67
2021/09/24 03:30:04;;;;;;;7.83;7.03;;;;;;;9.62;79.59;98503.83;1694416;84;21058;-68
2021/09/24 03:32:34;;;;;;;8.45;7.50;;;;;;;9.70;79.32;98500.30;1703211;83;21559;-69
2021/09/24 03:35:03;;;;;;;9.85;7.90;;;;;;;9.72;78.79;98491.41;1703766;83;21042;-68
2021/09/24 03:37:32;;;;;;;7.53;6.83;;;;;;;9.59;79.10;98483.00;1703597;83;21643;-68
2021/09/24 03:39:58;;;;;;;8.38;7.58;;;;;;;9.50;79.72;98474.73;1703924;83;21440;-69
2021/09/24 03:42:25;;;;;;;7.30;6.70;;;;;;;9.59;79.71;98474.69;1700139;83;21436;-68
2021/09/24 03:44:52;;;;;;;9.25;6.78;;;;;;;9.61;79.80;98461.48;1688006;83;21432;-68
2021/09/24 03:47:19;;;;;;;8.65;7.75;;;;;;;9.57;79.82;98461.25;1675375;85;21555;-70
2021/09/24 03:49:45;;;;;;;10.98;7.12;;;;;;;9.52;79.87;98457.59;1675303;83;21726;-68
2021/09/24 03:52:12;;;;;;;7.62;6.78;;;;;;;9.58;80.13;98455.09;1693058;83;21562;-67
2021/09/24 03:54:40;;;;;;;8.15;7.40;;;;;;;9.69;79.95;98444.81;1693110;84;21026;-68
2021/09/24 03:57:07;;;;;;;8.30;7.50;;;;;;;9.67;79.78;98444.06;1701088;83;20971;-68
2021/09/24 03:59:35;;;;;;;7.53;6.80;;;;;;;9.64;79.58;98438.50;1688049;83;21536;-67
2021/09/24 04:02:01;;;;;;;8.53;7.67;;;;;;;9.61;79.67;98434.77;1696276;83;22105;-69
2021/09/24 04:04:28;;;;;;;9.08;7.15;;;;;;;9.58;80.05;98428.37;1703927;83;20974;-68
2021/09/24 04:06:55;;;;;;;8.08;7.28;;;;;;;9.66;80.07;98423.98;1704042;83;20963;-68
2021/09/24 04:09:22;;;;;;;8.53;7.65;;;;;;;9.69;79.88;98419.88;1703802;83;21538;-69
2021/09/24 04:11:50;;;;;;;;;;;;;;;9.65;79.92;98419.21;1703170;83;21703;-70
2021/09/24 04:14:17;;;;;;;8.33;6.65;;;;;;;9.66;80.20;98421.36;1710435;83;22185;-71
2021/09/24 04:16:46;;;;;;;8.25;7.45;;;;;;;9.71;79.98;98400.95;1710162;83;21507;-69
2021/09/24 04:19:14;;;;;;;7.95;7.25;;;;;;;9.75;79.89;98404.59;1715066;83;21510;-69
2021/09/24 04:21:42;;;;;;;7.75;7.05;;;;;;;9.67;79.83;98392.88;1714907;83;21606;-70
2021/09/24 04:24:11;;;;;;;7.80;6.78;;;;;;;9.62;80.21;98387.05;1712952;83;20947;-70
2021/09/24 04:26:37;;;;;;;10.65;7.00;;;;;;;9.69;80.40;98384.45;1715283;83;21508;-70
2021/09/24 04:29:07;;;;;;;8.90;7.40;;;;;;;9.74;80.33;98379.30;1714852;83;21493;-71
2021/09/24 04:31:35;;;;;;;8.33;6.95;;;;;;;9.80;79.75;98364.97;1730739;81;20967;-71
2021/09/24 04:34:02;;;;;;;7.17;6.50;;;;;;;9.67;80.04;98361.39;1732313;81;21558;-71
2021/09/24 04:36:30;;;;;;;7.87;6.87;;;;;;;9.68;80.57;98356.05;1684655;84;21441;-70
2021/09/24 04:38:57;;;;;;;10.75;7.30;;;;;;;9.72;80.62;98351.47;1684571;84;21837;-71
2021/09/24 04:41:24;;;;;;;7.80;7.00;;;;;;;9.81;80.16;98344.80;1704686;83;21655;-71
2021/09/24 04:43:50;;;;;;;6.70;6.08;;;;;;;9.69;80.58;98339.35;1686078;84;21439;-70
2021/09/24 04:46:18;;;;;;;7.10;6.35;;;;;;;9.68;80.66;98342.93;1686921;83;21449;-71
2021/09/24 04:48:44;;;;;;;6.58;5.85;;;;;;;9.71;80.90;98341.89;1684797;83;21608;-70
2021/09/24 04:51:12;;;;;;;7.62;6.83;;;;;;;9.77;80.80;98334.11;1686726;83;21696;-71
2021/09/24 04:53:39;;;;;;;7.43;6.63;;;;;;;9.77;80.80;98332.80;1684859;83;21540;-71
2021/09/24 04:56:06;;;;;;;6.58;5.78;;;;;;;9.77;80.48;98324.93;1684771;84;21507;-71
2021/09/24 04:58:33;;;;;;;6.47;5.87;;;;;;;9.77;80.78;98322.30;1740347;82;21451;-72
2021/09/24 05:01:00;;;;;;;10.68;6.45;;;;;;;9.88;80.50;98323.33;1754529;80;21424;-71
2021/09/24 05:03:27;;;;;;;8.05;6.87;;;;;;;9.92;80.06;98309.55;1736161;82;21510;-71
2021/09/24 05:05:53;;;;;;;7.40;6.47;;;;;;;9.77;80.48;98303.93;1757961;80;21511;-70
2021/09/24 05:08:21;;;;;;;9.20;6.35;;;;;;;9.70;80.90;98289.01;1746506;80;21550;-69
2021/09/24 05:10:50;;;;;;;7.70;6.65;;;;;;;9.83;80.92;98286.48;1735848;80;20958;-70
2021/09/24 05:13:18;;;;;;;7.65;6.03;;;;;;;9.87;80.89;98289.29;1753605;80;21392;-70
2021/09/24 05:15:45;;;;;;;7.27;6.57;;;;;;;9.87;80.58;98265.22;1749873;80;21662;-71
2021/09/24 05:18:13;;;;;;;6.40;5.80;;;;;;;9.84;80.56;98258.00;1763933;80;21125;-68
2021/09/24 05:20:42;;;;;;;8.48;5.65;;;;;;;9.79;80.99;98255.64;1763693;80;21605;-72
2021/09/24 05:23:10;;;;;;;6.70;5.47;;;;;;;9.85;81.23;98251.34;1763955;80;21411;-70
2021/09/24 05:25:37;;;;;;;6.97;6.20;;;;;;;9.87;81.04;98256.03;1762360;80;21503;-70
2021/09/24 05:28:04;;;;;;;7.15;5.62;;;;;;;9.83;80.92;98246.66;1764791;80;22123;-68
2021/09/24 05:30:31;;;;;;;6.83;5.85;;;;;;;9.77;81.21;98235.69;1762049;80;21053;-66
2021/09/24 05:32:59;;;;;;;6.08;5.35;;;;;;;9.79;81.53;98242.99;1764583;80;21010;-69
2021/09/24 05:35:26;;;;;;;6.40;5.80;;;;;;;9.83;81.34;98232.22;1761934;80;21187;-66
2021/09/24 05:37:53;;;;;;;6.30;5.70;;;;;;;9.85;81.33;98225.54;1764437;80;21054;-65
2021/09/24 05:40:19;;;;;;;6.90;5.60;;;;;;;9.82;81.10;98216.56;1761149;80;22140;-67
2021/09/24 05:42:46;;;;;;;11.93;6.65;;;;;;;9.75;81.69;98206.42;1749077;80;21507;-69
2021/09/24 05:45:14;;;;;;;7.28;5.62;;;;;;;9.83;81.69;98201.17;1753081;80;21598;-66
2021/09/24 05:47:42;;;;;;;8.68;6.50;;;;;;;9.87;81.67;98198.27;1764103;80;21397;-72
2021/09/24 05:50:12;;;;;;;6.90;5.97;;;;;;;9.94;81.35;98211.84;1758813;80;21661;-78
2021/09/24 05:52:41;;;;;;;6.78;5.83;;;;;;;9.88;81.27;98220.11;1727658;82;21723;-75
2021/09/24 05:55:09;;;;;;;5.58;5.08;;;;;;;9.80;81.72;98214.03;1726625;82;21483;-70
2021/09/24 05:57:38;;;;;;;5.67;5.00;;;;;;;9.86;81.90;98201.82;1764616;80;21432;-73
2021/09/24 06:00:08;;;;;;;6.03;5.45;;;;;;;9.94;81.54;98196.09;1764474;80;21468;-73
2021/09/24 06:02:37;;;;;;;6.67;6.08;;;;;;;9.92;81.52;98194.03;1733957;82;21471;-73
2021/09/24 06:05:05;;;;;;;6.50;5.90;;;;;;;9.82;81.86;98182.44;1734414;80;21789;-69
2021/09/24 06:07:32;;;;;;;5.47;4.97;;;;;;;9.82;82.22;98185.89;1727799;82;21618;-75
2021/09/24 06:09:58;;;;;;;5.60;5.10;;;;;;;9.84;82.38;98174.00;1728174;81;21411;-70
2021/09/24 06:12:27;;;;;;;9.70;5.83;;;;;;;9.91;82.19;98177.45;1726339;81;21436;-73
2021/09/24 06:14:57;;;;;;;8.30;5.67;;;;;;;9.88;82.13;98182.88;1760060;80;21515;-72
2021/09/24 06:17:24;;;;;;;9.55;5.00;;;;;;;9.88;82.20;98168.44;1747358;80;21464;-73
2021/09/24 06:19:53;;;;;;;5.70;5.20;;;;;;;9.91;82.43;98165.63;1748038;80;21540;-75
2021/09/24 06:22:22;;;;;;;5.62;5.12;;;;;;;9.98;82.20;98166.55;1735139;80;21454;-73
2021/09/24 06:24:49;;;;;;;6.50;5.40;;;;;;;9.97;82.14;98157.00;1744734;80;21448;-73
2021/09/24 06:27:16;;;;;;;5.55;4.85;;;;;;;9.92;81.95;98159.90;1759267;80;21499;-79
2021/09/24 06:29:48;;;;;;;5.33;4.80;;;;;;;9.91;82.15;98158.23;1740161;80;21467;-76
2021/09/24 06:32:15;;;;;;;5.40;4.90;;;;;;;9.99;82.21;98145.45;1764389;80;21042;-77
2021/09/24 06:34:44;;;;;;;;;;;;;;;9.97;81.82;98172.27;1767313;80;21547;-74
2021/09/24 06:37:10;;;;;;;5.10;4.65;;;;;;;9.91;82.33;98156.92;1764775;80;20524;-75
2021/09/24 06:39:37;;;;;;;5.58;4.90;;;;;;;9.89;82.25;98145.67;1764794;80;21471;-77
2021/09/24 06:42:05;;;;;;;5.60;5.08;;;;;;;9.93;82.23;98159.81;1753604;80;21765;-76
2021/09/24 06:44:33;;;;;;;6.53;5.12;;;;;;;10.04;82.11;98151.70;1761647;80;21646;-74
2021/09/24 06:47:00;;;;;;;5.03;4.53;;;;;;;9.98;81.96;98141.13;1762442;80;21436;-74
2021/09/24 06:49:28;;;;;;;5.87;5.05;;;;;;;9.91;82.29;98133.30;1733038;80;21417;-76
2021/09/24 06:51:57;;;;;;;6.15;4.65;;;;;;;9.93;82.56;98144.53;1748657;80;21515;-76
2021/09/24 06:54:25;;;;;;;5.60;5.05;;;;;;;10.00;82.43;98142.34;1751457;80;21668;-73
2021/09/24 06:56:52;;;;;;;7.95;5.45;;;;;;;10.03;82.20;98143.47;1740118;80;21468;-77
2021/09/24 06:59:19;;;;;;;5.65;5.15;;;;;;;10.02;81.96;98133.45;1721575;81;20998;-76
2021/09/24 07:01:46;;;;;;;6.80;4.97;;;;;;;9.98;82.14;98131.09;1744550;80;21538;-73
2021/09/24 07:04:13;;;;;;;5.50;5.00;;;;;;;10.01;82.57;98126.97;1754191;80;21422;-72
2021/09/24 07:06:42;;;;;;;4.85;4.45;;;;;;;10.10;82.46;98132.95;1749284;80;22149;-72
2021/09/24 07:09:10;;;;;;;5.80;5.28;;;;;;;10.17;82.02;98125.49;1745018;80;21696;-72
2021/09/24 07:11:38;;;;;;;5.70;5.22;;;;;;;10.16;81.96;98127.77;1742576;80;21641;-74
2021/09/24 07:14:08;;;;;;;6.12;4.83;;;;;;;10.08;82.22;98117.28;1749280;80;21570;-73
2021/09/24 07:16:38;;;;;;;7.60;4.83;;;;;;;10.06;82.57;98119.65;1754317;80;21617;-72
2021/09/24 07:19:06;;;;;;;5.72;5.17;;;;;;;10.08;82.76;98105.95;1755303;80;21769;-72
2021/09/24 07:21:35;;;;;;;5.50;5.00;;;;;;;10.14;82.52;98101.59;1757141;80;21604;-71
2021/09/24 07:24:02;;;;;;;5.17;4.72;;;;;;;10.10;82.47;98100.95;1758442;80;21550;-73
2021/09/24 07:26:30;;;;;;;4.95;4.55;;;;;;;10.09;82.82;98104.51;1740548;80;21451;-74
2021/09/24 07:28:57;;;;;;;5.72;4.75;;;;;;;10.10;82.93;98095.70;1747649;80;21514;-74
2021/09/24 07:31:24;;;;;;;9.80;5.45;;;;;;;10.19;82.66;98092.95;1749459;80;21782;-75
2021/09/24 07:33:53;;;;;;;5.80;5.20;;;;;;;10.17;82.49;98093.53;1757209;80;21526;-72
2021/09/24 07:36:20;;;;;;;6.30;4.62;;;;;;;10.07;82.59;98086.70;1753663;80;21588;-72
2021/09/24 07:38:47;;;;;;;6.20;5.15;;;;;;;10.13;82.88;98100.77;1752848;80;21451;-75
2021/09/24 07:41:16;;;;;;;4.87;4.22;;;;;;;10.20;82.83;98086.73;1757900;80;21412;-71
2021/09/24 07:43:43;;;;;;;4.62;4.22;;;;;;;10.28;82.48;98094.11;1753201;79;21698;-72
2021/09/24 07:46:10;;;;;;;5.17;4.78;;;;;;;10.25;82.34;98086.45;1776138;79;21536;-70
2021/09/24 07:48:40;;;;;;;4.83;4.42;;;;;;;10.17;82.73;98096.60;1769805;79;21499;-73
2021/09/24 07:51:06;;;;;;;5.83;4.53;;;;;;;10.20;82.78;98105.61;1742055;82;21463;-72
2021/09/24 07:53:33;;;;;;;5.15;4.70;;;;;;;10.25;82.81;98096.48;1753858;80;21600;-73
2021/09/24 07:56:00;;;;;;;5.35;4.75;;;;;;;10.28;82.79;98093.66;1764285;79;22160;-63
2021/09/24 07:58:29;;;;;;;5.78;5.22;;;;;;;10.34;82.71;98095.07;1739828;82;21599;-67
2021/09/24 08:00:55;;;;;;;4.78;4.22;;;;;;;10.31;82.55;98097.41;1741445;80;21565;-66
2021/09/24 08:03:22;;;;;;;6.08;4.92;;;;;;;10.31;82.72;98101.83;1742235;82;21590;-65
2021/09/24 08:05:49;;;;;;;5.63;4.50;;;;;;;10.46;82.98;98102.59;1742329;82;21391;-69
2021/09/24 08:08:17;;;;;;;5.83;4.90;;;;;;;10.46;82.98;98102.59;1766821;80;21872;-76
2021/09/24 08:10:43;;;;;;;5.22;4.83;;;;;;;10.47;82.50;98095.94;1771801;80;21522;-75
2021/09/24 08:13:11;;;;;;;6.07;4.20;;;;;;;10.45;82.91;98093.88;1761447;80;21665;-73
2021/09/24 08:15:42;;;;;;;4.70;4.30;;;;;;;10.45;82.91;98093.88;1741915;81;22180;-72
2021/09/24 08:18:06;;;;;;;5.62;5.00;;;;;;;10.54;82.79;98088.47;1745274;80;21689;-74
2021/09/24 08:20:35;;;;;;;5.92;5.40;;;;;;;10.60;82.50;98088.52;1776598;80;21492;-74
2021/09/24 08:23:03;;;;;;;5.70;4.95;;;;;;;10.60;82.63;98087.20;1771986;80;21545;-76
2021/09/24 08:25:30;;;;;;;9.73;5.00;;;;;;;10.57;82.97;98083.02;1767088;80;21416;-77
2021/09/24 08:27:58;;;;;;;6.00;4.58;;;;;;;10.64;83.17;98082.11;1772337;80;21479;-72
2021/09/24 08:30:25;;;;;;;5.20;4.70;;;;;;;10.75;83.06;98054.61;1754627;80;21524;-70
2021/09/24 08:32:53;;;;;;;5.47;4.80;;;;;;;10.84;83.04;98066.30;1754681;79;21820;-73
2021/09/24 08:35:21;;;;;;;5.17;4.67;;;;;;;10.87;83.21;98060.36;1752422;79;21053;-70
2021/09/24 08:37:49;;;;;;;4.50;4.10;;;;;;;10.91;83.23;98059.67;1757595;79;21475;-73
2021/09/24 08:40:18;;;;;;;4.37;3.90;;;;;;;11.04;83.27;98071.02;1770689;79;21594;-68
2021/09/24 08:42:46;;;;;;;4.30;4.00;;;;;;;11.11;83.14;98075.36;1751794;80;21559;-72
2021/09/24 08:45:29;;;;;;;4.65;4.25;;;;;;;11.17;82.48;98076.27;1754128;79;21609;-71
2021/09/24 08:48:01;;;;;;;8.75;3.70;;;;;;;11.16;82.54;98075.05;1762330;80;20991;-72
2021/09/24 08:50:29;;;;;;;4.65;4.00;;;;;;;11.19;82.61;98079.63;1770899;80;21510;-75
2021/09/24 08:52:58;;;;;;;4.22;3.83;;;;;;;11.30;82.35;98084.98;1772592;80;21455;-74
2021/09/24 08:55:24;;;;;;;4.55;4.12;;;;;;;11.38;82.16;98080.97;1768359;80;21486;-74
2021/09/24 08:57:51;;;;;;;6.10;4.00;;;;;;;11.41;82.12;98079.41;1765087;79;22141;-74
2021/09/24 09:00:19;;;;;;;5.03;4.00;;;;;;;11.41;81.82;98081.56;1764825;80;21541;-74
2021/09/24 09:03:10;;;;;;;4.40;3.80;;;;;;;11.51;81.78;98080.45;1743415;80;21564;-76
2021/09/24 09:05:40;;;;;;;4.62;4.22;;;;;;;11.62;81.76;98067.82;1772057;80;21503;-74
2021/09/24 09:08:27;;;;;;;5.10;4.12;;;;;;;11.68;81.32;98063.45;1771911;80;21399;-74
2021/09/24 09:11:02;;;;;;;3.72;3.42;;;;;;;11.66;81.28;98058.30;1772760;80;21820;-75
2021/09/24 09:13:33;;;;;;;4.25;3.85;;;;;;;11.75;81.00;98059.39;1772432;80;20930;-73
2021/09/24 09:16:08;;;;;;;5.70;3.60;;;;;;;11.86;80.53;98069.16;1766162;80;21385;-73
2021/09/24 09:18:39;;;;;;;4.87;3.52;;;;;;;11.91;80.33;98059.16;1751898;80;21560;-74
2021/09/24 09:21:08;;;;;;;5.65;3.60;;;;;;;11.90;80.46;98068.00;1733814;82;21504;-73
2021/09/24 09:23:36;;;;;;;3.95;3.55;;;;;;;12.00;80.59;98067.71;1753977;80;21497;-74
2021/09/24 09:26:08;;;;;;;3.65;3.35;;;;;;;12.16;80.48;98067.40;1764416;80;21546;-72
2021/09/24 09:28:39;;;;;;;4.28;3.60;;;;;;;12.29;79.84;98079.19;1764244;80;21475;-73
2021/09/24 09:31:20;;;;;;;5.08;3.55;;;;;;;12.29;79.20;98071.28;1764502;80;21497;-72
2021/09/24 09:33:48;;;;;;;4.10;3.10;;;;;;;12.28;79.00;98066.95;1754781;79;21582;-73
2021/09/24 09:36:24;;;;;;;3.87;3.57;;;;;;;12.42;79.10;98063.30;1745227;80;21802;-76
2021/09/24 09:38:51;;;;;;;8.38;4.08;;;;;;;12.60;78.74;98066.33;1723039;80;22009;-75
2021/09/24 09:41:21;;;;;;;4.62;3.30;;;;;;;12.71;77.42;98063.70;1762062;80;21670;-76
2021/09/24 09:43:52;;;;;;;3.37;2.87;;;;;;;12.75;76.95;98058.58;1753110;80;21628;-74
2021/09/24 09:46:24;;;;;;;4.97;2.62;;;;;;;12.83;76.14;98057.50;1749556;80;21630;-76
2021/09/24 09:49:07;;;;;;;4.20;2.85;;;;;;;13.03;76.60;98053.78;1726207;80;21771;-75
2021/09/24 09:51:36;;;;;;;4.35;3.42;;;;;;;13.12;75.75;98060.98;1761082;80;21641;-75
2021/09/24 09:54:05;;;;;;;4.15;3.00;;;;;;;13.21;75.30;98066.03;1764287;80;21547;-75
2021/09/24 09:56:41;;;;;;;6.50;3.22;;;;;;;13.32;76.05;98071.33;1754471;80;21507;-76
2021/09/24 09:59:23;;;;;;;3.22;2.72;;;;;;;13.51;74.71;98065.42;1763955;80;21456;-76
2021/09/24 10:02:09;;;;;;;6.95;3.00;;;;;;;13.54;74.19;98059.91;1761558;80;22142;-77
2021/09/24 10:04:46;;;;;;;3.00;2.70;;;;;;;13.58;73.39;98064.44;1729657;80;21491;-75
2021/09/24 10:07:16;;;;;;;6.03;2.75;;;;;;;13.61;72.78;98058.92;1725887;80;21586;-75
2021/09/24 10:09:45;;;;;;;4.35;2.45;;;;;;;13.71;72.24;98055.91;1747738;80;21472;-75
2021/09/24 10:12:22;;;;;;;4.03;2.22;;;;;;;13.80;71.41;98059.59;1764341;80;21411;-72
2021/09/24 10:14:51;;;;;;;4.45;2.00;;;;;;;13.87;71.60;98071.34;1750747;80;21566;-73
2021/09/24 10:17:20;;;;;;;4.12;2.10;;;;;;;13.91;71.93;98063.52;1748280;80;21589;-73
2021/09/24 10:19:48;;;;;;;10.08;2.17;;;;;;;13.94;68.65;98073.02;1745613;80;20931;-73
2021/09/24 10:22:15;;;;;;;3.72;1.75;;;;;;;13.96;65.60;98067.13;1764377;80;21535;-73
2021/09/24 10:24:42;;;;;;;2.70;1.40;;;;;;;13.91;65.39;98070.62;1758639;80;21511;-73
2021/09/24 10:29:25;;;;;;;3.30;1.45;;;;;;;13.89;65.40;98072.55;1786627;79;23046;-73
2021/09/24 10:31:52;;;;;;;2.60;1.52;;;;;;;13.79;65.09;98073.78;1725062;81;21057;-73
2021/09/24 10:34:19;;;;;;;3.85;1.65;;;;;;;13.74;65.00;98082.55;1730427;81;21816;-74
2021/09/24 10:36:51;;;;;;;;;;;;;;;13.76;65.41;98092.51;1720414;80;21473;-73
2021/09/24 10:39:34;;;;;;;3.75;1.50;;;;;;;13.86;63.30;98084.19;1710057;81;20441;-74
2021/09/24 10:42:25;;;;;;;6.00;1.80;;;;;;;13.90;62.52;98079.03;1747656;81;21494;-73
2021/09/24 10:45:16;;;;;;;4.35;1.57;;;;;;;13.92;61.91;98090.31;1717991;81;21696;-75
2021/09/24 10:48:22;;;;;;;2.70;1.32;;;;;;;13.94;62.25;98083.09;1725874;80;21750;-75
2021/09/24 10:50:58;;;;;;;3.77;1.32;;;;;;;14.05;62.49;98066.34;1707397;81;21453;-76
2021/09/24 10:53:41;;;;;;;2.58;1.20;;;;;;;14.15;62.25;98076.53;1735333;80;21521;-74
2021/09/24 10:56:13;;;;;;;4.08;1.20;;;;;;;14.24;61.50;98079.37;1745449;80;21484;-66
2021/09/24 10:58:42;;;;;;;1.60;0.98;;;;;;;14.16;61.45;98090.58;1742168;81;21451;-70
2021/09/24 11:01:12;;;;;;;3.98;1.10;;;;;;;14.12;59.48;98087.84;1723168;81;22142;-71
2021/09/24 11:04:09;;;;;;;3.85;1.30;;;;;;;13.95;59.82;98083.44;1717526;82;21436;-72
2021/09/24 11:06:38;;;;;;;3.62;1.30;;;;;;;13.89;60.64;98092.36;1717082;81;21002;-72
2021/09/24 11:09:15;;;;;;;4.55;1.27;;;;;;;13.90;60.97;98083.00;1737518;80;21574;-72
2021/09/24 11:11:48;;;;;;;2.72;1.10;;;;;;;13.90;61.30;98091.38;1726095;80;21403;-76
2021/09/24 11:14:37;;;;;;;2.77;1.60;;;;;;;13.92;61.28;98086.34;1731075;80;21499;-75
2021/09/24 11:17:08;;;;;;;4.12;1.35;;;;;;;13.99;61.72;98088.86;1736036;80;21419;-74
2021/09/24 11:19:44;;;;;;;1.82;1.02;;;;;;;14.09;61.22;98089.39;1747266;80;21446;-72
2021/09/24 11:22:38;;;;;;;3.95;1.40;;;;;;;14.11;61.22;98095.39;1717579;82;21568;-69
2021/09/24 11:25:13;;;;;;;2.70;1.20;;;;;;;14.06;61.46;98106.35;1717607;82;21451;-69
2021/09/24 11:27:44;;;;;;;4.22;1.10;;;;;;;13.82;63.12;98105.21;1715054;82;21439;-70
2021/09/24 11:30:23;;;;;;;2.05;1.37;;;;;;;13.65;64.10;98101.77;1726689;81;21431;-70
2021/09/24 11:32:57;;;;;;;2.72;1.20;;;;;;;13.59;64.75;98105.25;1721120;81;21432;-71
2021/09/24 11:35:43;;;;;;;6.62;1.47;;;;;;;13.53;66.81;98105.75;1705871;82;21582;-70
2021/09/24 11:38:18;;;;;;;2.98;1.30;;;;;;;13.63;67.63;98103.20;1705437;82;21424;-70
2021/09/24 11:40:53;;;;;;;4.62;1.60;;;;;;;13.77;66.71;98100.31;1704079;82;21645;-71
2021/09/24 11:43:38;;;;;;;4.72;1.05;;;;;;;13.94;66.98;98096.31;1704769;82;21425;-71
2021/09/24 11:46:24;;;;;;;1.95;1.40;;;;;;;14.22;66.53;98096.67;1704369;82;21468;-70
2021/09/24 11:48:51;;;;;;;3.02;1.35;;;;;;;14.38;65.22;98083.88;1704686;82;21456;-72
2021/09/24 11:51:22;;;;;;;5.08;1.57;;;;;;;14.51;65.18;98082.86;1705514;82;21500;-72